createdAt,value
2022-09-22T00:01:32.884Z,11.80
2022-09-22T00:04:06.055Z,14.33
2022-09-22T00:06:37.101Z,11.80
2022-09-22T00:09:06.681Z,10.77
2022-09-22T00:11:37.588Z,12.53
2022-09-22T00:14:08.984Z,11.60
2022-09-22T00:16:40.349Z,11.70
2022-09-22T00:19:12.024Z,11.47
2022-09-22T00:21:40.325Z,14.67
2022-09-22T00:24:09.299Z,13.03
2022-09-22T00:26:39.127Z,13.40
2022-09-22T00:29:09.363Z,12.47
2022-09-22T00:31:39.024Z,10.27
2022-09-22T00:34:09.602Z,15.37
2022-09-22T00:36:37.991Z,11.63
2022-09-22T00:39:06.297Z,10.33
2022-09-22T00:41:37.390Z,13.43
2022-09-22T00:44:34.069Z,13.87
2022-09-22T00:47:06.989Z,10.97
2022-09-22T00:49:43.153Z,13.57
2022-09-22T00:52:15.036Z,15.27
2022-09-22T00:54:43.294Z,11.63
2022-09-22T00:57:15.285Z,12.73
2022-09-22T00:59:47.216Z,11.77
2022-09-22T01:02:16.234Z,13.90
2022-09-22T01:04:47.065Z,12.50
2022-09-22T01:07:15.598Z,12.07
2022-09-22T01:09:43.846Z,14.87
2022-09-22T01:12:13.056Z,11.97
2022-09-22T01:14:56.964Z,13.77
2022-09-22T01:17:34.957Z,11.90
2022-09-22T01:20:42.567Z,13.43
2022-09-22T01:23:48.359Z,16.20
2022-09-22T01:26:36.308Z,13.97
2022-09-22T01:29:30.326Z,14.43
2022-09-22T01:32:10.426Z,15.87
2022-09-22T01:34:45.928Z,14.83
2022-09-22T01:37:18.961Z,20.00
2022-09-22T01:39:52.530Z,17.17
2022-09-22T01:42:28.628Z,13.33
2022-09-22T01:45:03.046Z,15.93
2022-09-22T01:47:40.591Z,14.03
2022-09-22T01:50:14.588Z,16.03
2022-09-22T01:52:44.061Z,18.47
2022-09-22T01:55:17.754Z,16.57
2022-09-22T01:57:52.410Z,16.40
2022-09-22T02:00:22.223Z,15.73
2022-09-22T02:02:58.981Z,15.37
2022-09-22T02:05:33.319Z,17.33
2022-09-22T02:08:05.139Z,17.60
2022-09-22T02:10:37.948Z,16.93
2022-09-22T02:13:06.245Z,15.70
2022-09-22T02:15:51.952Z,19.23
2022-09-22T02:18:27.152Z,18.43
2022-09-22T02:20:56.306Z,22.23
2022-09-22T02:23:24.659Z,16.97
2022-09-22T02:25:54.320Z,18.53
2022-09-22T02:28:25.002Z,18.80
2022-09-22T02:31:19.148Z,25.53
2022-09-22T02:33:48.177Z,23.03
2022-09-22T02:36:29.982Z,19.53
2022-09-22T02:39:03.385Z,20.77
2022-09-22T02:41:47.245Z,19.47
2022-09-22T02:44:20.887Z,22.47
2022-09-22T02:46:57.208Z,22.07
2022-09-22T02:49:27.937Z,21.00
2022-09-22T02:51:56.321Z,21.00
2022-09-22T02:54:24.611Z,22.13
2022-09-22T02:56:52.933Z,20.20
2022-09-22T02:59:21.170Z,20.40
2022-09-22T03:01:49.973Z,21.53
2022-09-22T03:04:18.309Z,23.87
2022-09-22T03:06:47.984Z,23.27
2022-09-22T03:09:17.738Z,23.40
2022-09-22T03:11:45.999Z,26.00
2022-09-22T03:14:14.349Z,22.67
2022-09-22T03:16:42.645Z,20.43
2022-09-22T03:19:11.153Z,20.47
2022-09-22T03:21:39.320Z,19.90
2022-09-22T03:24:09.213Z,23.10
2022-09-22T03:26:37.903Z,22.57
2022-09-22T03:29:06.318Z,22.97
2022-09-22T03:31:34.675Z,20.03
2022-09-22T03:34:03.018Z,22.60
2022-09-22T03:36:31.256Z,22.27
2022-09-22T03:39:00.222Z,22.40
2022-09-22T03:41:30.047Z,23.70
2022-09-22T03:43:58.630Z,20.53
2022-09-22T03:46:27.109Z,18.20
2022-09-22T03:48:57.902Z,19.20
2022-09-22T03:51:26.189Z,18.67
2022-09-22T03:53:54.662Z,22.67
2022-09-22T03:56:23.019Z,23.50
2022-09-22T03:58:53.177Z,21.00
2022-09-22T04:01:21.556Z,22.03
2022-09-22T04:03:49.823Z,23.63
2022-09-22T04:06:18.114Z,24.23
2022-09-22T04:08:46.401Z,21.63
2022-09-22T04:11:14.623Z,28.13
2022-09-22T04:13:46.185Z,22.23
2022-09-22T04:16:16.513Z,24.60
2022-09-22T04:18:45.138Z,26.10
2022-09-22T04:21:14.013Z,25.60
2022-09-22T04:23:42.324Z,29.40
2022-09-22T04:26:10.880Z,30.77
2022-09-22T04:28:39.327Z,26.17
2022-09-22T04:31:07.974Z,25.80
2022-09-22T04:33:37.788Z,25.67
2022-09-22T04:36:06.705Z,26.93
2022-09-22T04:38:35.039Z,25.77
2022-09-22T04:41:03.467Z,25.67
2022-09-22T04:43:31.792Z,20.10
2022-09-22T04:46:02.801Z,27.37
2022-09-22T04:48:33.261Z,22.17
2022-09-22T04:51:02.986Z,23.13
2022-09-22T04:53:31.371Z,27.30
2022-09-22T04:55:59.680Z,27.17
2022-09-22T04:58:27.894Z,23.80
2022-09-22T05:00:56.404Z,28.40
2022-09-22T05:03:25.129Z,28.30
2022-09-22T05:05:53.619Z,31.60
2022-09-22T05:08:23.270Z,33.20
2022-09-22T05:10:51.632Z,32.93
2022-09-22T05:13:20.004Z,34.73
2022-09-22T05:15:48.307Z,29.80
2022-09-22T05:18:16.828Z,28.97
2022-09-22T05:20:45.927Z,29.27
2022-09-22T05:23:14.416Z,28.37
2022-09-22T05:25:44.308Z,28.80
2022-09-22T05:28:12.655Z,26.53
2022-09-22T05:30:41.217Z,26.30
2022-09-22T05:33:09.541Z,28.67
2022-09-22T05:35:37.826Z,24.90
2022-09-22T05:38:06.178Z,25.50
2022-09-22T05:40:34.670Z,22.30
2022-09-22T05:43:04.576Z,31.50
2022-09-22T05:45:32.919Z,26.77
2022-09-22T05:48:01.355Z,23.90
2022-09-22T05:50:29.711Z,24.83
2022-09-22T05:53:05.753Z,24.83
2022-09-22T05:55:34.466Z,24.07
2022-09-22T05:58:04.801Z,28.00
2022-09-22T06:00:33.588Z,20.43
2022-09-22T06:03:04.305Z,24.63
2022-09-22T06:05:33.975Z,21.23
2022-09-22T06:08:06.543Z,20.23
2022-09-22T06:10:36.453Z,21.60
2022-09-22T06:13:07.849Z,22.20
2022-09-22T06:15:36.578Z,25.67
2022-09-22T06:18:07.122Z,21.37
2022-09-22T06:20:35.977Z,20.10
2022-09-22T06:23:04.543Z,22.50
2022-09-22T06:25:32.939Z,22.43
2022-09-22T06:28:02.308Z,23.13
2022-09-22T06:30:32.670Z,21.90
2022-09-22T06:33:01.334Z,21.57
2022-09-22T06:35:32.616Z,23.03
2022-09-22T06:38:00.926Z,22.93
2022-09-22T06:40:29.458Z,19.37
2022-09-22T06:42:59.330Z,26.30
2022-09-22T06:45:28.010Z,19.37
2022-09-22T06:48:00.615Z,22.93
2022-09-22T06:50:31.138Z,20.13
2022-09-22T06:53:01.145Z,19.93
2022-09-22T06:55:29.527Z,21.60
2022-09-22T06:57:59.926Z,21.10
2022-09-22T07:00:33.078Z,22.00
2022-09-22T07:03:08.851Z,19.00
2022-09-22T07:05:38.149Z,22.17
2022-09-22T07:08:07.084Z,19.43
2022-09-22T07:10:38.184Z,22.83
2022-09-22T07:13:07.097Z,23.77
2022-09-22T07:15:37.307Z,19.97
2022-09-22T07:18:07.777Z,19.53
2022-09-22T07:20:36.166Z,23.63
2022-09-22T07:23:04.473Z,28.20
2022-09-22T07:25:36.014Z,20.07
2022-09-22T07:28:06.082Z,16.23
2022-09-22T07:30:36.394Z,18.27
2022-09-22T07:33:06.152Z,17.77
2022-09-22T07:35:35.309Z,17.23
2022-09-22T07:38:05.898Z,18.43
2022-09-22T07:40:34.312Z,18.30
2022-09-22T07:43:02.687Z,22.07
2022-09-22T07:45:31.130Z,22.37
2022-09-22T07:48:17.150Z,16.43
2022-09-22T07:50:55.204Z,16.30
2022-09-22T07:53:23.565Z,17.53
2022-09-22T07:55:51.874Z,21.00
2022-09-22T07:58:21.241Z,17.63
2022-09-22T08:00:49.561Z,16.67
2022-09-22T08:03:17.799Z,15.90
2022-09-22T08:05:52.334Z,16.27
2022-09-22T08:08:21.632Z,19.43
2022-09-22T08:10:49.866Z,19.57
2022-09-22T08:13:20.500Z,19.87
2022-09-22T08:15:53.159Z,23.50
2022-09-22T08:18:21.457Z,26.87
2022-09-22T08:20:54.409Z,26.43
2022-09-22T08:23:23.334Z,26.33
2022-09-22T08:25:51.739Z,24.03
2022-09-22T08:28:20.006Z,23.23
2022-09-22T08:30:49.091Z,20.33
2022-09-22T08:33:17.636Z,22.10
2022-09-22T08:35:54.823Z,15.80
2022-09-22T08:38:23.714Z,16.47
2022-09-22T08:41:08.522Z,16.00
2022-09-22T08:43:44.289Z,17.07
2022-09-22T08:46:13.470Z,19.47
2022-09-22T08:49:03.067Z,14.47
2022-09-22T08:51:53.133Z,17.50
2022-09-22T08:54:23.264Z,16.87
2022-09-22T08:57:12.719Z,13.93
2022-09-22T08:59:48.633Z,16.23
2022-09-22T09:02:53.019Z,14.90
2022-09-22T09:06:01.428Z,10.73
2022-09-22T09:09:05.254Z,7.57
2022-09-22T09:11:51.992Z,11.50
2022-09-22T09:14:42.856Z,9.98
2022-09-22T09:17:15.905Z,8.70
2022-09-22T09:19:47.488Z,11.85
2022-09-22T09:22:24.943Z,7.33
2022-09-22T09:27:52.309Z,8.43
2022-09-22T09:30:22.279Z,6.97
2022-09-22T09:32:53.550Z,7.63
2022-09-22T09:35:26.776Z,9.20
2022-09-22T09:37:59.070Z,7.22
2022-09-22T09:40:29.184Z,7.65
2022-09-22T09:43:03.270Z,8.00
2022-09-22T09:45:41.418Z,7.28
2022-09-22T09:48:21.042Z,8.98
2022-09-22T09:50:49.453Z,8.23
2022-09-22T09:53:32.036Z,5.43
2022-09-22T09:56:01.984Z,8.45
2022-09-22T09:58:47.469Z,8.38
2022-09-22T10:01:16.233Z,8.40
2022-09-22T10:03:48.320Z,9.05
2022-09-22T10:06:27.394Z,9.43
2022-09-22T10:08:55.812Z,7.45
2022-09-22T10:11:33.733Z,7.70
2022-09-22T10:14:02.186Z,6.65
2022-09-22T10:16:33.536Z,8.98
2022-09-22T10:19:23.325Z,8.57
2022-09-22T10:21:51.908Z,6.72
2022-09-22T10:24:29.628Z,5.93
2022-09-22T10:27:02.492Z,5.95
2022-09-22T10:29:33.758Z,3.90
2022-09-22T10:32:13.134Z,6.20
2022-09-22T10:37:15.539Z,8.52
2022-09-22T10:39:50.224Z,6.22
2022-09-22T10:42:35.981Z,5.35
2022-09-22T10:45:07.063Z,5.10
2022-09-22T10:47:51.441Z,3.05
2022-09-22T10:50:57.294Z,3.38
2022-09-22T10:53:45.795Z,4.00
2022-09-22T10:56:23.069Z,5.68
2022-09-22T10:59:18.563Z,5.70
2022-09-22T11:02:03.114Z,3.85
2022-09-22T11:04:44.844Z,5.95
2022-09-22T11:08:10.932Z,4.57
2022-09-22T11:11:06.498Z,4.55
2022-09-22T11:13:43.111Z,3.55
2022-09-22T11:16:34.551Z,4.18
2022-09-22T11:19:28.582Z,3.15
2022-09-22T11:22:08.942Z,4.65
2022-09-22T11:24:55.088Z,3.70
2022-09-22T11:27:36.429Z,5.78
2022-09-22T11:30:16.239Z,3.95
2022-09-22T11:33:15.617Z,4.20
2022-09-22T11:35:59.908Z,4.43
2022-09-22T11:38:51.315Z,4.30
2022-09-22T11:41:29.976Z,3.63
2022-09-22T11:44:22.662Z,5.20
2022-09-22T11:47:08.846Z,4.68
2022-09-22T11:49:53.659Z,4.68
2022-09-22T11:52:30.900Z,4.53
2022-09-22T11:55:15.881Z,4.78
2022-09-22T11:57:48.843Z,4.40
2022-09-22T12:00:19.807Z,4.72
2022-09-22T12:02:52.107Z,6.95
2022-09-22T12:05:27.059Z,5.68
2022-09-22T12:08:03.254Z,3.65
2022-09-22T12:10:35.392Z,4.13
2022-09-22T12:13:05.265Z,4.78
2022-09-22T12:15:39.373Z,3.60
2022-09-22T12:18:13.607Z,3.33
2022-09-22T12:20:55.869Z,2.28
2022-09-22T12:23:39.788Z,2.83
2022-09-22T12:26:09.829Z,3.47
2022-09-22T12:28:44.173Z,3.72
2022-09-22T12:31:15.412Z,3.97
2022-09-22T12:33:48.736Z,3.30
2022-09-22T12:36:20.127Z,2.55
2022-09-22T12:38:49.793Z,3.72
2022-09-22T12:41:19.799Z,3.97
2022-09-22T12:43:48.789Z,2.20
2022-09-22T12:46:27.954Z,2.88
2022-09-22T12:48:58.771Z,5.03
2022-09-22T12:51:33.489Z,3.45
2022-09-22T12:54:45.804Z,4.28
2022-09-22T12:57:29.317Z,7.15
2022-09-22T13:00:13.585Z,3.92
2022-09-22T13:02:44.522Z,2.92
2022-09-22T13:05:35.544Z,3.55
2022-09-22T13:08:05.565Z,2.42
2022-09-22T13:10:51.649Z,2.83
2022-09-22T13:13:44.576Z,2.40
2022-09-22T13:16:33.554Z,2.38
2022-09-22T13:19:02.719Z,4.57
2022-09-22T13:21:33.460Z,3.08
2022-09-22T13:24:05.153Z,3.97
2022-09-22T13:26:35.305Z,2.83
2022-09-22T13:29:07.752Z,2.13
2022-09-22T13:31:45.266Z,2.95
2022-09-22T13:34:27.501Z,2.92
2022-09-22T13:37:00.305Z,2.90
2022-09-22T13:39:33.302Z,2.50
2022-09-22T13:42:07.430Z,2.53
2022-09-22T13:44:40.123Z,3.75
2022-09-22T13:47:14.533Z,2.30
2022-09-22T13:49:47.648Z,3.00
2022-09-22T13:52:21.507Z,4.28
2022-09-22T13:54:54.561Z,3.08
2022-09-22T13:57:27.160Z,2.50
2022-09-22T13:59:58.522Z,2.92
2022-09-22T14:02:31.580Z,5.55
2022-09-22T14:05:05.751Z,3.80
2022-09-22T14:07:49.451Z,6.40
2022-09-22T14:10:30.660Z,3.35
2022-09-22T14:12:58.988Z,2.72
2022-09-22T14:15:44.336Z,5.40
2022-09-22T14:18:18.173Z,4.43
2022-09-22T14:20:46.781Z,3.42
2022-09-22T14:23:18.828Z,5.35
2022-09-22T14:25:48.727Z,6.65
2022-09-22T14:28:22.470Z,4.78
2022-09-22T14:30:51.312Z,3.53
2022-09-22T14:33:23.766Z,3.03
2022-09-22T14:36:00.898Z,3.58
2022-09-22T14:38:34.372Z,5.75
2022-09-22T14:41:04.402Z,4.72
2022-09-22T14:43:37.950Z,3.58
2022-09-22T14:46:24.204Z,4.68
2022-09-22T14:48:52.543Z,3.35
2022-09-22T14:51:22.897Z,3.63
2022-09-22T14:53:54.685Z,5.63
2022-09-22T14:56:28.223Z,6.05
2022-09-22T14:58:59.204Z,4.03
2022-09-22T15:01:48.886Z,4.90
2022-09-22T15:04:22.413Z,3.35
2022-09-22T15:06:51.947Z,4.55
2022-09-22T15:09:25.865Z,3.78
2022-09-22T15:11:57.894Z,2.75
2022-09-22T15:14:34.593Z,4.68
2022-09-22T15:17:17.623Z,4.25
2022-09-22T15:19:46.004Z,2.47
2022-09-22T15:22:15.049Z,2.35
2022-09-22T15:24:43.345Z,4.03
2022-09-22T15:27:17.800Z,4.43
2022-09-22T15:29:46.228Z,3.53
2022-09-22T15:32:15.587Z,4.47
2022-09-22T15:34:44.672Z,3.55
2022-09-22T15:37:22.440Z,3.72
2022-09-22T15:39:50.862Z,4.82
2022-09-22T15:42:22.136Z,3.33
2022-09-22T15:44:50.778Z,4.63
2022-09-22T15:47:19.269Z,3.42
2022-09-22T15:49:47.564Z,6.15
2022-09-22T15:52:15.892Z,3.58
2022-09-22T15:54:47.877Z,4.35
2022-09-22T15:57:17.301Z,4.38
2022-09-22T15:59:46.882Z,4.35
2022-09-22T16:02:16.166Z,5.68
2022-09-22T16:04:44.535Z,4.18
2022-09-22T16:07:16.400Z,6.05
2022-09-22T16:09:44.793Z,3.28
2022-09-22T16:12:15.446Z,4.28
2022-09-22T16:14:43.734Z,5.20
2022-09-22T16:17:13.705Z,3.83
2022-09-22T16:19:44.597Z,4.90
2022-09-22T16:22:13.257Z,5.53
2022-09-22T16:24:43.371Z,5.80
2022-09-22T16:27:12.226Z,3.75
2022-09-22T16:29:40.501Z,4.10
2022-09-22T16:32:08.757Z,6.60
2022-09-22T16:34:38.527Z,5.68
2022-09-22T16:37:06.963Z,5.55
2022-09-22T16:39:35.280Z,4.82
2022-09-22T16:42:03.765Z,5.65
2022-09-22T16:44:32.010Z,7.28
2022-09-22T16:47:00.329Z,4.68
2022-09-22T16:49:29.427Z,5.07
2022-09-22T16:51:59.048Z,3.50
2022-09-22T16:54:27.738Z,4.13
2022-09-22T16:56:56.022Z,4.53
2022-09-22T16:59:24.714Z,2.88
2022-09-22T17:01:53.312Z,3.08
2022-09-22T17:04:21.646Z,3.70
2022-09-22T17:06:50.269Z,5.63
2022-09-22T17:09:20.252Z,3.15
2022-09-22T17:11:50.107Z,4.43
2022-09-22T17:14:21.661Z,4.13
2022-09-22T17:16:52.040Z,4.18
2022-09-22T17:19:22.624Z,4.60
2022-09-22T17:21:53.978Z,3.35
2022-09-22T17:24:25.064Z,3.80
2022-09-22T17:26:55.306Z,4.60
2022-09-22T17:29:26.170Z,4.97
2022-09-22T17:31:57.290Z,6.93
2022-09-22T17:34:25.971Z,7.90
2022-09-22T17:36:55.465Z,8.43
2022-09-22T17:39:26.584Z,6.68
2022-09-22T17:41:55.272Z,4.35
2022-09-22T17:44:26.707Z,6.30
2022-09-22T17:47:12.483Z,6.03
2022-09-22T17:49:58.570Z,4.57
2022-09-22T17:52:44.467Z,4.07
2022-09-22T17:55:20.368Z,5.13
2022-09-22T17:57:50.421Z,5.90
2022-09-22T18:00:20.981Z,4.70
2022-09-22T18:02:50.492Z,7.43
2022-09-22T18:05:21.389Z,6.17
2022-09-22T18:07:53.637Z,6.73
2022-09-22T18:10:26.334Z,5.23
2022-09-22T18:12:54.671Z,7.40
2022-09-22T18:15:23.588Z,8.83
2022-09-22T18:17:55.583Z,10.27
2022-09-22T18:20:23.896Z,9.73
2022-09-22T18:22:52.216Z,14.20
2022-09-22T18:25:24.112Z,11.43
2022-09-22T18:27:55.230Z,11.33
2022-09-22T18:30:23.662Z,14.67
2022-09-22T18:32:52.329Z,10.40
2022-09-22T18:35:20.616Z,12.50
2022-09-22T18:37:49.604Z,13.63
2022-09-22T18:40:17.935Z,11.13
2022-09-22T18:42:46.350Z,11.43
2022-09-22T18:45:16.107Z,11.27
2022-09-22T18:47:44.498Z,15.33
2022-09-22T18:50:13.428Z,14.40
2022-09-22T18:52:45.106Z,13.47
2022-09-22T18:55:14.223Z,13.20
2022-09-22T18:57:47.396Z,15.43
2022-09-22T19:00:21.107Z,13.87
2022-09-22T19:02:50.534Z,12.73
2022-09-22T19:05:19.148Z,13.77
2022-09-22T19:07:48.359Z,12.37
2022-09-22T19:10:21.977Z,12.20
2022-09-22T19:12:50.819Z,13.23
2022-09-22T19:15:20.872Z,13.13
2022-09-22T19:17:50.235Z,14.20
2022-09-22T19:20:23.006Z,14.80
2022-09-22T19:22:52.601Z,17.97
2022-09-22T19:25:21.929Z,16.90
2022-09-22T19:27:50.842Z,14.97
2022-09-22T19:30:23.395Z,16.17
2022-09-22T19:32:53.020Z,15.63
2022-09-22T19:35:21.510Z,16.80
2022-09-22T19:37:51.829Z,14.53
2022-09-22T19:40:22.577Z,16.47
2022-09-22T19:42:51.620Z,15.10
2022-09-22T19:45:21.671Z,16.80
2022-09-22T19:47:50.057Z,18.00
2022-09-22T19:50:19.110Z,16.43
2022-09-22T19:52:49.984Z,16.67
2022-09-22T19:55:21.041Z,18.90
2022-09-22T19:57:52.433Z,15.20
2022-09-22T20:00:26.215Z,18.37
2022-09-22T20:02:58.641Z,15.57
2022-09-22T20:05:30.101Z,19.20
2022-09-22T20:07:58.455Z,15.60
2022-09-22T20:10:29.962Z,21.20
2022-09-22T20:12:59.356Z,18.03
2022-09-22T20:15:29.280Z,17.77
2022-09-22T20:17:57.705Z,15.30
2022-09-22T20:20:27.003Z,17.93
2022-09-22T20:23:00.177Z,19.87
2022-09-22T20:25:31.196Z,15.17
2022-09-22T20:27:59.450Z,13.73
2022-09-22T20:30:29.181Z,12.97
2022-09-22T20:32:57.670Z,13.27
2022-09-22T20:35:26.524Z,13.00
2022-09-22T20:37:59.388Z,15.17
2022-09-22T20:40:29.090Z,13.37
2022-09-22T20:42:58.127Z,13.73
2022-09-22T20:45:28.288Z,11.20
2022-09-22T20:47:57.023Z,13.50
2022-09-22T20:50:25.613Z,11.53
2022-09-22T20:52:55.474Z,12.80
2022-09-22T20:55:23.819Z,13.67
2022-09-22T20:57:52.620Z,9.10
2022-09-22T21:00:21.229Z,12.27
2022-09-22T21:02:52.503Z,11.00
2022-09-22T21:05:21.783Z,13.80
2022-09-22T21:08:10.589Z,11.70
2022-09-22T21:10:38.257Z,11.13
2022-09-22T21:13:06.732Z,14.47
2022-09-22T21:15:36.175Z,11.70
2022-09-22T21:18:05.974Z,12.83
2022-09-22T21:20:34.338Z,9.33
2022-09-22T21:23:02.742Z,12.30
2022-09-22T21:25:34.523Z,11.33
2022-09-22T21:28:03.298Z,13.83
2022-09-22T21:30:31.610Z,16.93
2022-09-22T21:33:00.323Z,10.50
2022-09-22T21:35:29.965Z,11.97
2022-09-22T21:37:58.326Z,11.33
2022-09-22T21:40:26.669Z,10.43
2022-09-22T21:42:55.139Z,11.30
2022-09-22T21:45:23.407Z,10.67
2022-09-22T21:47:52.105Z,9.33
2022-09-22T21:50:20.385Z,10.30
2022-09-22T21:52:50.125Z,11.63
2022-09-22T21:55:18.797Z,10.90
2022-09-22T21:57:47.114Z,9.47
2022-09-22T22:00:15.779Z,11.17
2022-09-22T22:03:01.642Z,10.57
2022-09-22T22:05:31.205Z,8.63
2022-09-22T22:08:00.894Z,10.67
2022-09-22T22:10:29.281Z,8.83
2022-09-22T22:12:57.592Z,9.07
2022-09-22T22:15:26.120Z,9.50
2022-09-22T22:17:54.904Z,10.03
2022-09-22T22:20:25.551Z,10.33
2022-09-22T22:22:56.268Z,10.00
2022-09-22T22:25:25.985Z,8.60
2022-09-22T22:27:56.117Z,10.97
2022-09-22T22:30:24.428Z,9.93
2022-09-22T22:32:53.170Z,11.13
2022-09-22T22:35:21.464Z,8.67
2022-09-22T22:37:49.839Z,11.37
2022-09-22T22:40:18.181Z,9.83
2022-09-22T22:42:49.213Z,9.47
2022-09-22T22:45:17.663Z,9.37
2022-09-22T22:47:46.215Z,8.97
2022-09-22T22:50:14.597Z,10.23
2022-09-22T22:52:43.190Z,8.33
2022-09-22T22:55:11.542Z,11.70
2022-09-22T22:57:39.814Z,9.87
2022-09-22T23:00:11.217Z,8.47
2022-09-22T23:02:39.710Z,9.57
2022-09-22T23:05:08.909Z,9.40
2022-09-22T23:07:38.335Z,9.97
2022-09-22T23:10:07.698Z,10.40
2022-09-22T23:12:39.439Z,9.57
2022-09-22T23:15:10.575Z,8.73
2022-09-22T23:17:39.389Z,8.80
2022-09-22T23:20:08.714Z,9.53
2022-09-22T23:22:37.063Z,8.83
2022-09-22T23:25:05.996Z,10.67
2022-09-22T23:27:34.432Z,10.13
2022-09-22T23:30:02.758Z,9.07
2022-09-22T23:32:32.431Z,9.93
2022-09-22T23:35:00.748Z,9.77
2022-09-22T23:37:29.343Z,7.73
2022-09-22T23:39:57.674Z,11.20
2022-09-22T23:42:25.939Z,9.30
2022-09-22T23:44:54.241Z,11.70
2022-09-22T23:47:22.507Z,10.13
2022-09-22T23:49:52.219Z,9.30
2022-09-22T23:52:22.567Z,8.63
2022-09-22T23:54:51.264Z,10.50
2022-09-22T23:57:19.604Z,10.00
2022-09-22T23:59:47.883Z,15.20
